sensor_id;sensor_type;location;lat;lon;timestamp;pressure;altitude;pressure_sealevel;temperature;humidity
35716;BME280;21840;44.920;8.616;2022-12-29T00:01:17;101157.78;;;15.22;51.27
35716;BME280;21840;44.920;8.616;2022-12-29T00:03:45;101160.16;;;15.25;51.28
35716;BME280;21840;44.920;8.616;2022-12-29T00:06:11;101158.84;;;15.02;51.13
35716;BME280;21840;44.920;8.616;2022-12-29T00:08:36;101147.53;;;14.23;53.06
35716;BME280;21840;44.920;8.616;2022-12-29T00:11:17;101138.78;;;14.33;52.95
35716;BME280;21840;44.920;8.616;2022-12-29T00:13:43;101142.38;;;14.32;53.11
35716;BME280;21840;44.920;8.616;2022-12-29T00:16:28;101144.75;;;14.64;52.37
35716;BME280;21840;44.920;8.616;2022-12-29T00:18:53;101139.63;;;14.33;53.17
35716;BME280;21840;44.920;8.616;2022-12-29T00:21:21;101147.25;;;14.46;52.55
35716;BME280;21840;44.920;8.616;2022-12-29T00:24:06;101141.84;;;14.18;53.04
35716;BME280;21840;44.920;8.616;2022-12-29T00:26:49;101131.81;;;14.61;52.56
35716;BME280;21840;44.920;8.616;2022-12-29T00:29:34;101125.28;;;14.26;53.29
35716;BME280;21840;44.920;8.616;2022-12-29T00:32:18;101127.75;;;14.47;52.77
35716;BME280;21840;44.920;8.616;2022-12-29T00:35:03;101119.69;;;14.49;52.88
35716;BME280;21840;44.920;8.616;2022-12-29T00:37:41;101125.41;;;14.05;53.82
35716;BME280;21840;44.920;8.616;2022-12-29T00:40:26;101122.06;;;14.52;52.63
35716;BME280;21840;44.920;8.616;2022-12-29T00:43:10;101116.53;;;14.35;52.88
35716;BME280;21840;44.920;8.616;2022-12-29T00:45:57;101123.13;;;14.88;51.82
35716;BME280;21840;44.920;8.616;2022-12-29T00:48:22;101116.47;;;14.74;51.76
35716;BME280;21840;44.920;8.616;2022-12-29T00:51:07;101119.59;;;14.21;53.16
35716;BME280;21840;44.920;8.616;2022-12-29T00:53:33;101116.91;;;14.70;52.37
35716;BME280;21840;44.920;8.616;2022-12-29T00:55:59;101113.72;;;14.37;52.73
35716;BME280;21840;44.920;8.616;2022-12-29T00:58:27;101114.84;;;14.05;53.65
35716;BME280;21840;44.920;8.616;2022-12-29T01:01:02;101115.38;;;14.48;52.62
35716;BME280;21840;44.920;8.616;2022-12-29T01:03:28;101119.56;;;14.60;52.76
35716;BME280;21840;44.920;8.616;2022-12-29T01:05:53;101131.22;;;14.48;52.40
35716;BME280;21840;44.920;8.616;2022-12-29T01:08:19;101120.25;;;14.72;52.20
35716;BME280;21840;44.920;8.616;2022-12-29T01:10:44;101118.50;;;14.90;51.70
35716;BME280;21840;44.920;8.616;2022-12-29T01:13:10;101125.94;;;14.77;51.70
35716;BME280;21840;44.920;8.616;2022-12-29T01:15:36;101122.50;;;14.57;52.14
35716;BME280;21840;44.920;8.616;2022-12-29T01:18:01;101113.84;;;14.64;52.25
35716;BME280;21840;44.920;8.616;2022-12-29T01:20:27;101118.47;;;14.43;52.80
35716;BME280;21840;44.920;8.616;2022-12-29T01:22:54;101123.88;;;14.61;52.01
35716;BME280;21840;44.920;8.616;2022-12-29T01:25:19;101120.94;;;14.64;52.20
35716;BME280;21840;44.920;8.616;2022-12-29T01:27:45;101128.06;;;14.63;52.15
35716;BME280;21840;44.920;8.616;2022-12-29T01:30:11;101128.44;;;14.78;52.17
35716;BME280;21840;44.920;8.616;2022-12-29T01:32:37;101118.38;;;14.92;51.74
35716;BME280;21840;44.920;8.616;2022-12-29T01:35:03;101126.72;;;14.87;51.41
35716;BME280;21840;44.920;8.616;2022-12-29T01:37:28;101117.56;;;14.81;51.63
35716;BME280;21840;44.920;8.616;2022-12-29T01:39:54;101118.38;;;14.92;51.37
35716;BME280;21840;44.920;8.616;2022-12-29T01:42:24;101118.03;;;15.04;51.13
35716;BME280;21840;44.920;8.616;2022-12-29T01:44:57;101118.47;;;15.00;51.24
35716;BME280;21840;44.920;8.616;2022-12-29T01:47:30;101121.66;;;15.03;51.02
35716;BME280;21840;44.920;8.616;2022-12-29T01:50:03;101123.72;;;14.72;51.52
35716;BME280;21840;44.920;8.616;2022-12-29T01:52:32;101127.63;;;14.68;51.64
35716;BME280;21840;44.920;8.616;2022-12-29T01:55:02;101121.84;;;14.92;51.25
35716;BME280;21840;44.920;8.616;2022-12-29T01:57:34;101130.38;;;14.86;51.53
35716;BME280;21840;44.920;8.616;2022-12-29T02:00:10;101138.84;;;14.80;51.37
35716;BME280;21840;44.920;8.616;2022-12-29T02:02:42;101132.66;;;14.61;51.98
35716;BME280;21840;44.920;8.616;2022-12-29T02:05:23;101134.16;;;14.44;52.26
35716;BME280;21840;44.920;8.616;2022-12-29T02:07:51;101135.16;;;14.73;51.69
35716;BME280;21840;44.920;8.616;2022-12-29T02:10:20;101120.41;;;14.21;52.83
35716;BME280;21840;44.920;8.616;2022-12-29T02:12:46;101131.09;;;14.78;51.74
35716;BME280;21840;44.920;8.616;2022-12-29T02:15:12;101131.94;;;14.59;51.81
35716;BME280;21840;44.920;8.616;2022-12-29T02:17:50;101128.06;;;14.54;51.99
35716;BME280;21840;44.920;8.616;2022-12-29T02:32:21;101102.88;;;14.30;52.72
35716;BME280;21840;44.920;8.616;2022-12-29T02:34:41;101097.47;;;14.41;52.41
35716;BME280;21840;44.920;8.616;2022-12-29T02:40:31;101085.09;;;14.22;52.79
35716;BME280;21840;44.920;8.616;2022-12-29T02:49:03;101087.88;;;13.82;53.68
35716;BME280;21840;44.920;8.616;2022-12-29T02:51:39;101084.69;;;14.27;52.71
35716;BME280;21840;44.920;8.616;2022-12-29T02:54:07;101087.19;;;14.09;52.72
35716;BME280;21840;44.920;8.616;2022-12-29T02:56:51;101085.66;;;13.87;53.41
35716;BME280;21840;44.920;8.616;2022-12-29T02:59:17;101097.63;;;13.91;53.43
35716;BME280;21840;44.920;8.616;2022-12-29T03:02:11;101092.47;;;13.80;53.74
35716;BME280;21840;44.920;8.616;2022-12-29T03:08:06;101088.88;;;13.81;53.91
35716;BME280;21840;44.920;8.616;2022-12-29T03:11:01;101078.31;;;13.81;53.95
35716;BME280;21840;44.920;8.616;2022-12-29T03:16:47;101068.59;;;14.11;53.14
35716;BME280;21840;44.920;8.616;2022-12-29T03:19:21;101070.91;;;14.33;52.67
35716;BME280;21840;44.920;8.616;2022-12-29T03:21:54;101068.44;;;14.12;53.07
35716;BME280;21840;44.920;8.616;2022-12-29T03:24:50;101074.97;;;14.18;52.98
35716;BME280;21840;44.920;8.616;2022-12-29T03:27:34;101066.34;;;14.06;52.95
35716;BME280;21840;44.920;8.616;2022-12-29T03:30:04;101064.41;;;13.98;53.42
35716;BME280;21840;44.920;8.616;2022-12-29T03:32:51;101065.94;;;13.72;53.72
35716;BME280;21840;44.920;8.616;2022-12-29T03:35:24;101064.53;;;14.16;52.77
35716;BME280;21840;44.920;8.616;2022-12-29T03:38:14;101068.84;;;14.08;52.84
35716;BME280;21840;44.920;8.616;2022-12-29T03:40:44;101068.28;;;13.75;53.74
35716;BME280;21840;44.920;8.616;2022-12-29T03:43:12;101065.66;;;13.85;53.90
35716;BME280;21840;44.920;8.616;2022-12-29T03:45:39;101059.69;;;13.92;53.77
35716;BME280;21840;44.920;8.616;2022-12-29T03:48:04;101059.25;;;13.68;53.84
35716;BME280;21840;44.920;8.616;2022-12-29T03:50:31;101053.16;;;13.77;53.88
35716;BME280;21840;44.920;8.616;2022-12-29T03:52:59;101056.91;;;13.94;53.79
35716;BME280;21840;44.920;8.616;2022-12-29T03:55:26;101056.06;;;13.64;54.20
35716;BME280;21840;44.920;8.616;2022-12-29T03:57:52;101057.75;;;13.94;53.33
35716;BME280;21840;44.920;8.616;2022-12-29T04:00:27;101060.66;;;13.91;53.24
35716;BME280;21840;44.920;8.616;2022-12-29T04:02:54;101052.75;;;14.01;53.25
35716;BME280;21840;44.920;8.616;2022-12-29T04:05:21;101061.72;;;14.28;52.54
35716;BME280;21840;44.920;8.616;2022-12-29T04:07:49;101062.03;;;14.24;52.20
35716;BME280;21840;44.920;8.616;2022-12-29T04:10:15;101062.91;;;14.06;53.12
35716;BME280;21840;44.920;8.616;2022-12-29T04:12:41;101064.13;;;14.01;52.83
35716;BME280;21840;44.920;8.616;2022-12-29T04:15:08;101070.53;;;14.09;52.91
35716;BME280;21840;44.920;8.616;2022-12-29T04:17:34;101070.13;;;14.03;52.75
35716;BME280;21840;44.920;8.616;2022-12-29T04:19:59;101071.22;;;13.81;53.63
35716;BME280;21840;44.920;8.616;2022-12-29T04:22:43;101070.94;;;13.94;53.15
35716;BME280;21840;44.920;8.616;2022-12-29T04:25:09;101071.75;;;13.85;53.15
35716;BME280;21840;44.920;8.616;2022-12-29T04:27:35;101063.44;;;13.99;53.10
35716;BME280;21840;44.920;8.616;2022-12-29T04:30:19;101066.91;;;14.10;52.65
35716;BME280;21840;44.920;8.616;2022-12-29T04:32:58;101074.81;;;13.90;52.83
35716;BME280;21840;44.920;8.616;2022-12-29T04:35:24;101068.72;;;13.90;52.86
35716;BME280;21840;44.920;8.616;2022-12-29T04:37:50;101067.88;;;14.09;52.58
35716;BME280;21840;44.920;8.616;2022-12-29T04:40:16;101061.38;;;13.93;52.56
35716;BME280;21840;44.920;8.616;2022-12-29T04:42:41;101053.56;;;13.53;53.32
35716;BME280;21840;44.920;8.616;2022-12-29T04:45:07;101058.34;;;12.88;55.32
35716;BME280;21840;44.920;8.616;2022-12-29T04:47:53;101064.50;;;13.08;55.14
35716;BME280;21840;44.920;8.616;2022-12-29T04:50:48;101061.75;;;13.59;53.76
35716;BME280;21840;44.920;8.616;2022-12-29T04:53:17;101065.13;;;13.81;53.06
35716;BME280;21840;44.920;8.616;2022-12-29T04:55:44;101059.94;;;13.10;54.84
35716;BME280;21840;44.920;8.616;2022-12-29T04:58:09;101053.00;;;13.49;54.15
35716;BME280;21840;44.920;8.616;2022-12-29T05:00:35;101051.50;;;13.76;53.32
35716;BME280;21840;44.920;8.616;2022-12-29T05:03:01;101051.34;;;13.87;53.03
35716;BME280;21840;44.920;8.616;2022-12-29T05:05:28;101050.09;;;13.62;53.49
35716;BME280;21840;44.920;8.616;2022-12-29T05:07:53;101057.63;;;13.86;52.96
35716;BME280;21840;44.920;8.616;2022-12-29T05:10:19;101055.66;;;13.59;53.60
35716;BME280;21840;44.920;8.616;2022-12-29T05:12:50;101056.78;;;13.76;53.18
35716;BME280;21840;44.920;8.616;2022-12-29T05:15:16;101058.41;;;13.38;53.44
35716;BME280;21840;44.920;8.616;2022-12-29T05:17:42;101057.31;;;13.70;53.35
35716;BME280;21840;44.920;8.616;2022-12-29T05:20:08;101044.63;;;13.34;53.69
35716;BME280;21840;44.920;8.616;2022-12-29T05:22:35;101053.88;;;13.19;54.33
35716;BME280;21840;44.920;8.616;2022-12-29T05:25:01;101057.56;;;13.47;53.86
35716;BME280;21840;44.920;8.616;2022-12-29T05:27:27;101063.72;;;13.77;53.17
35716;BME280;21840;44.920;8.616;2022-12-29T05:30:08;101069.81;;;13.48;53.96
35716;BME280;21840;44.920;8.616;2022-12-29T05:32:34;101070.25;;;13.73;52.90
35716;BME280;21840;44.920;8.616;2022-12-29T05:35:00;101061.47;;;13.63;53.15
35716;BME280;21840;44.920;8.616;2022-12-29T05:37:26;101061.63;;;13.90;52.77
35716;BME280;21840;44.920;8.616;2022-12-29T05:39:51;101063.59;;;13.98;52.65
35716;BME280;21840;44.920;8.616;2022-12-29T05:42:17;101067.47;;;14.03;52.60
35716;BME280;21840;44.920;8.616;2022-12-29T05:45:15;101066.34;;;13.77;53.18
35716;BME280;21840;44.920;8.616;2022-12-29T05:47:52;101062.88;;;13.76;53.04
35716;BME280;21840;44.920;8.616;2022-12-29T05:50:36;101059.94;;;13.70;53.01
35716;BME280;21840;44.920;8.616;2022-12-29T05:53:10;101057.31;;;13.70;53.06
35716;BME280;21840;44.920;8.616;2022-12-29T05:55:37;101067.59;;;14.12;52.33
35716;BME280;21840;44.920;8.616;2022-12-29T05:58:03;101068.72;;;13.99;52.52
35716;BME280;21840;44.920;8.616;2022-12-29T06:00:28;101059.53;;;14.23;52.01
35716;BME280;21840;44.920;8.616;2022-12-29T06:02:54;101069.63;;;14.37;51.73
35716;BME280;21840;44.920;8.616;2022-12-29T06:05:20;101071.34;;;14.09;52.01
35716;BME280;21840;44.920;8.616;2022-12-29T06:07:45;101063.72;;;14.06;52.06
35716;BME280;21840;44.920;8.616;2022-12-29T06:10:13;101065.22;;;14.28;51.43
35716;BME280;21840;44.920;8.616;2022-12-29T06:12:46;101059.66;;;14.31;51.52
35716;BME280;21840;44.920;8.616;2022-12-29T06:15:13;101064.25;;;14.29;51.65
35716;BME280;21840;44.920;8.616;2022-12-29T06:17:40;101060.38;;;14.14;51.88
35716;BME280;21840;44.920;8.616;2022-12-29T06:20:07;101066.50;;;13.66;52.77
35716;BME280;21840;44.920;8.616;2022-12-29T06:22:33;101070.25;;;14.12;52.14
35716;BME280;21840;44.920;8.616;2022-12-29T06:25:00;101061.19;;;13.85;52.23
35716;BME280;21840;44.920;8.616;2022-12-29T06:27:27;101063.31;;;14.11;52.24
35716;BME280;21840;44.920;8.616;2022-12-29T06:29:53;101061.91;;;13.97;52.40
35716;BME280;21840;44.920;8.616;2022-12-29T06:32:18;101061.72;;;14.28;51.83
35716;BME280;21840;44.920;8.616;2022-12-29T06:34:48;101059.97;;;13.79;52.44
35716;BME280;21840;44.920;8.616;2022-12-29T06:37:13;101052.47;;;13.94;52.21
35716;BME280;21840;44.920;8.616;2022-12-29T06:39:40;101052.28;;;13.37;53.45
35716;BME280;21840;44.920;8.616;2022-12-29T06:42:10;101058.41;;;13.38;53.47
35716;BME280;21840;44.920;8.616;2022-12-29T06:44:54;101056.91;;;13.74;52.99
35716;BME280;21840;44.920;8.616;2022-12-29T06:47:22;101060.66;;;13.91;52.73
35716;BME280;21840;44.920;8.616;2022-12-29T06:49:47;101059.69;;;14.12;52.37
35716;BME280;21840;44.920;8.616;2022-12-29T06:52:15;101059.13;;;14.08;51.92
35716;BME280;21840;44.920;8.616;2022-12-29T06:54:41;101070.38;;;14.10;51.87
35716;BME280;21840;44.920;8.616;2022-12-29T06:57:06;101068.41;;;14.22;51.86
35716;BME280;21840;44.920;8.616;2022-12-29T06:59:32;101076.50;;;14.01;51.67
35716;BME280;21840;44.920;8.616;2022-12-29T07:01:57;101076.75;;;14.08;51.77
35716;BME280;21840;44.920;8.616;2022-12-29T07:04:23;101083.31;;;14.03;52.16
35716;BME280;21840;44.920;8.616;2022-12-29T07:06:48;101083.84;;;14.17;51.61
35716;BME280;21840;44.920;8.616;2022-12-29T07:09:14;101076.38;;;13.83;52.27
35716;BME280;21840;44.920;8.616;2022-12-29T07:11:39;101080.13;;;13.80;52.60
35716;BME280;21840;44.920;8.616;2022-12-29T07:14:05;101080.38;;;13.87;52.40
35716;BME280;21840;44.920;8.616;2022-12-29T07:16:31;101078.44;;;13.99;51.95
35716;BME280;21840;44.920;8.616;2022-12-29T07:18:57;101080.38;;;14.26;51.49
35716;BME280;21840;44.920;8.616;2022-12-29T07:21:24;101095.25;;;14.27;51.14
35716;BME280;21840;44.920;8.616;2022-12-29T07:23:50;101092.06;;;13.94;52.05
35716;BME280;21840;44.920;8.616;2022-12-29T07:26:15;101088.44;;;13.66;52.61
35716;BME280;21840;44.920;8.616;2022-12-29T07:28:44;101081.22;;;13.97;51.85
35716;BME280;21840;44.920;8.616;2022-12-29T07:31:21;101090.41;;;14.13;51.16
35716;BME280;21840;44.920;8.616;2022-12-29T07:33:47;101083.03;;;13.77;52.03
35716;BME280;21840;44.920;8.616;2022-12-29T07:36:13;101102.22;;;13.99;51.12
35716;BME280;21840;44.920;8.616;2022-12-29T07:38:40;101101.06;;;13.72;51.71
35716;BME280;21840;44.920;8.616;2022-12-29T07:41:06;101097.47;;;13.73;52.12
35716;BME280;21840;44.920;8.616;2022-12-29T07:43:31;101108.19;;;13.91;51.91
35716;BME280;21840;44.920;8.616;2022-12-29T07:46:17;101114.00;;;13.85;51.71
35716;BME280;21840;44.920;8.616;2022-12-29T07:48:42;101114.84;;;13.66;52.09
35716;BME280;21840;44.920;8.616;2022-12-29T07:51:10;101113.38;;;13.33;52.56
35716;BME280;21840;44.920;8.616;2022-12-29T07:53:36;101108.81;;;13.54;52.37
35716;BME280;21840;44.920;8.616;2022-12-29T07:56:02;101109.19;;;13.40;52.65
35716;BME280;21840;44.920;8.616;2022-12-29T07:58:27;101108.03;;;13.64;52.29
35716;BME280;21840;44.920;8.616;2022-12-29T08:00:56;101109.16;;;13.71;51.79
35716;BME280;21840;44.920;8.616;2022-12-29T08:03:22;101111.50;;;13.24;52.65
35716;BME280;21840;44.920;8.616;2022-12-29T08:05:52;101108.69;;;13.46;52.17
35716;BME280;21840;44.920;8.616;2022-12-29T08:08:17;101116.91;;;13.63;51.95
35716;BME280;21840;44.920;8.616;2022-12-29T08:10:43;101116.00;;;13.33;52.56
35716;BME280;21840;44.920;8.616;2022-12-29T08:13:08;101117.72;;;13.53;51.91
35716;BME280;21840;44.920;8.616;2022-12-29T08:15:34;101115.06;;;13.44;51.59
35716;BME280;21840;44.920;8.616;2022-12-29T08:18:00;101115.28;;;13.81;51.22
35716;BME280;21840;44.920;8.616;2022-12-29T08:20:26;101118.44;;;13.75;50.89
35716;BME280;21840;44.920;8.616;2022-12-29T08:22:51;101113.19;;;14.14;50.67
35716;BME280;21840;44.920;8.616;2022-12-29T08:25:17;101120.97;;;13.86;50.48
35716;BME280;21840;44.920;8.616;2022-12-29T08:27:42;101117.88;;;13.62;51.35
35716;BME280;21840;44.920;8.616;2022-12-29T08:30:08;101115.00;;;12.93;51.81
35716;BME280;21840;44.920;8.616;2022-12-29T08:32:35;101116.06;;;13.22;51.49
35716;BME280;21840;44.920;8.616;2022-12-29T08:35:01;101109.22;;;12.79;52.39
35716;BME280;21840;44.920;8.616;2022-12-29T08:37:26;101109.31;;;12.98;51.86
35716;BME280;21840;44.920;8.616;2022-12-29T08:39:52;101119.41;;;13.24;51.06
35716;BME280;21840;44.920;8.616;2022-12-29T08:42:17;101120.31;;;13.34;51.22
35716;BME280;21840;44.920;8.616;2022-12-29T08:44:43;101122.78;;;13.86;50.20
35716;BME280;21840;44.920;8.616;2022-12-29T08:47:10;101116.53;;;13.87;49.75
35716;BME280;21840;44.920;8.616;2022-12-29T08:49:36;101121.00;;;14.06;49.44
35716;BME280;21840;44.920;8.616;2022-12-29T08:52:01;101127.22;;;14.24;48.89
35716;BME280;21840;44.920;8.616;2022-12-29T08:54:27;101120.81;;;13.97;49.51
35716;BME280;21840;44.920;8.616;2022-12-29T08:56:53;101123.75;;;14.14;49.08
35716;BME280;21840;44.920;8.616;2022-12-29T08:59:21;101131.09;;;14.39;48.50
35716;BME280;21840;44.920;8.616;2022-12-29T09:01:47;101136.56;;;14.38;48.64
35716;BME280;21840;44.920;8.616;2022-12-29T09:04:13;101134.59;;;14.01;49.45
35716;BME280;21840;44.920;8.616;2022-12-29T09:06:38;101138.78;;;14.23;49.13
35716;BME280;21840;44.920;8.616;2022-12-29T09:09:04;101134.03;;;14.27;49.14
35716;BME280;21840;44.920;8.616;2022-12-29T09:11:29;101140.44;;;14.24;48.98
35716;BME280;21840;44.920;8.616;2022-12-29T09:13:55;101135.28;;;14.32;48.82
35716;BME280;21840;44.920;8.616;2022-12-29T09:16:22;101142.78;;;14.27;49.20
35716;BME280;21840;44.920;8.616;2022-12-29T09:18:48;101131.81;;;14.22;49.02
35716;BME280;21840;44.920;8.616;2022-12-29T09:21:14;101134.75;;;14.19;49.22
35716;BME280;21840;44.920;8.616;2022-12-29T09:23:40;101135.97;;;14.34;49.20
35716;BME280;21840;44.920;8.616;2022-12-29T09:26:06;101132.94;;;14.39;48.69
35716;BME280;21840;44.920;8.616;2022-12-29T09:28:32;101136.28;;;14.60;48.38
35716;BME280;21840;44.920;8.616;2022-12-29T09:30:58;101139.91;;;14.11;48.61
35716;BME280;21840;44.920;8.616;2022-12-29T09:33:24;101138.22;;;14.10;48.97
35716;BME280;21840;44.920;8.616;2022-12-29T09:35:54;101140.97;;;14.37;48.58
35716;BME280;21840;44.920;8.616;2022-12-29T09:38:20;101134.56;;;14.50;48.49
35716;BME280;21840;44.920;8.616;2022-12-29T09:40:51;101130.72;;;14.54;48.04
35716;BME280;21840;44.920;8.616;2022-12-29T09:43:31;101127.91;;;14.45;47.89
35716;BME280;21840;44.920;8.616;2022-12-29T09:48:55;101124.72;;;14.61;47.76
35716;BME280;21840;44.920;8.616;2022-12-29T09:51:23;101120.34;;;14.80;47.01
35716;BME280;21840;44.920;8.616;2022-12-29T09:53:55;101130.88;;;14.99;46.72
35716;BME280;21840;44.920;8.616;2022-12-29T09:56:23;101126.38;;;15.09;46.77
35716;BME280;21840;44.920;8.616;2022-12-29T09:59:00;101132.84;;;15.25;46.04
35716;BME280;21840;44.920;8.616;2022-12-29T10:01:35;101118.38;;;14.92;46.55
35716;BME280;21840;44.920;8.616;2022-12-29T10:04:03;101113.00;;;15.11;46.54
35716;BME280;21840;44.920;8.616;2022-12-29T10:06:44;101116.00;;;14.98;46.75
35716;BME280;21840;44.920;8.616;2022-12-29T10:14:49;101125.97;;;15.04;46.51
35716;BME280;21840;44.920;8.616;2022-12-29T10:17:44;101122.22;;;14.40;47.49
35716;BME280;21840;44.920;8.616;2022-12-29T10:23:26;101119.69;;;14.49;47.18
35716;BME280;21840;44.920;8.616;2022-12-29T10:25:57;101111.00;;;15.23;46.00
35716;BME280;21840;44.920;8.616;2022-12-29T10:28:38;101109.94;;;15.16;46.01
35716;BME280;21840;44.920;8.616;2022-12-29T10:31:12;101113.00;;;15.11;46.16
35716;BME280;21840;44.920;8.616;2022-12-29T10:33:41;101118.91;;;14.58;46.88
35716;BME280;21840;44.920;8.616;2022-12-29T10:36:18;101116.50;;;15.02;46.44
35716;BME280;21840;44.920;8.616;2022-12-29T10:39:14;101109.97;;;15.34;45.65
35716;BME280;21840;44.920;8.616;2022-12-29T10:41:49;101095.97;;;15.23;45.86
35716;BME280;21840;44.920;8.616;2022-12-29T10:44:17;101099.13;;;15.27;45.77
35716;BME280;21840;44.920;8.616;2022-12-29T10:46:54;101108.41;;;15.13;45.75
35716;BME280;21840;44.920;8.616;2022-12-29T10:49:21;101106.16;;;15.18;45.94
35716;BME280;21840;44.920;8.616;2022-12-29T10:51:48;101097.28;;;14.72;46.76
35716;BME280;21840;44.920;8.616;2022-12-29T10:54:25;101092.63;;;14.94;46.72
35716;BME280;21840;44.920;8.616;2022-12-29T10:56:54;101086.63;;;15.47;45.49
35716;BME280;21840;44.920;8.616;2022-12-29T10:59:27;101089.50;;;15.36;45.42
35716;BME280;21840;44.920;8.616;2022-12-29T11:02:12;101085.47;;;15.31;45.55
35716;BME280;21840;44.920;8.616;2022-12-29T11:07:17;101072.50;;;15.38;46.38
35716;BME280;21840;44.920;8.616;2022-12-29T11:09:44;101073.25;;;15.03;46.55
35716;BME280;21840;44.920;8.616;2022-12-29T11:12:28;101060.03;;;15.48;45.99
35716;BME280;21840;44.920;8.616;2022-12-29T11:17:56;101058.44;;;15.38;46.55
35716;BME280;21840;44.920;8.616;2022-12-29T11:22:53;101053.88;;;15.02;47.69
35716;BME280;21840;44.920;8.616;2022-12-29T11:25:19;101057.47;;;15.11;47.76
35716;BME280;21840;44.920;8.616;2022-12-29T11:28:04;101058.19;;;15.49;46.50
35716;BME280;21840;44.920;8.616;2022-12-29T11:30:39;101051.28;;;15.20;47.41
35716;BME280;21840;44.920;8.616;2022-12-29T11:33:04;101051.16;;;15.40;47.24
35716;BME280;21840;44.920;8.616;2022-12-29T11:35:36;101057.25;;;15.68;46.85
35716;BME280;21840;44.920;8.616;2022-12-29T11:38:13;101055.69;;;15.47;47.06
35716;BME280;21840;44.920;8.616;2022-12-29T11:40:43;101056.81;;;15.45;47.31
35716;BME280;21840;44.920;8.616;2022-12-29T11:43:21;101059.03;;;15.67;46.57
35716;BME280;21840;44.920;8.616;2022-12-29T11:46:17;101054.41;;;15.34;47.52
35716;BME280;21840;44.920;8.616;2022-12-29T11:48:43;101049.16;;;15.69;46.95
35716;BME280;21840;44.920;8.616;2022-12-29T11:51:11;101036.28;;;15.57;47.34
35716;BME280;21840;44.920;8.616;2022-12-29T11:53:45;101029.84;;;16.13;46.16
35716;BME280;21840;44.920;8.616;2022-12-29T11:56:16;101022.44;;;16.25;45.87
35716;BME280;21840;44.920;8.616;2022-12-29T11:58:42;101023.75;;;16.21;45.75
35716;BME280;21840;44.920;8.616;2022-12-29T12:01:32;101028.22;;;15.76;46.69
35716;BME280;21840;44.920;8.616;2022-12-29T12:04:15;101021.63;;;15.80;46.72
35716;BME280;21840;44.920;8.616;2022-12-29T12:07:00;101019.31;;;16.29;45.95
35716;BME280;21840;44.920;8.616;2022-12-29T12:09:56;101028.25;;;16.02;46.28
35716;BME280;21840;44.920;8.616;2022-12-29T12:12:43;101024.75;;;15.76;47.03
35716;BME280;21840;44.920;8.616;2022-12-29T12:15:22;101011.16;;;15.61;47.47
35716;BME280;21840;44.920;8.616;2022-12-29T12:17:56;101016.91;;;15.92;46.68
35716;BME280;21840;44.920;8.616;2022-12-29T12:20:27;101003.00;;;15.54;47.86
35716;BME280;21840;44.920;8.616;2022-12-29T12:23:18;101000.91;;;15.76;47.57
35716;BME280;21840;44.920;8.616;2022-12-29T12:29:16;101003.44;;;16.29;46.39
35716;BME280;21840;44.920;8.616;2022-12-29T12:32:13;101006.25;;;16.28;46.28
35716;BME280;21840;44.920;8.616;2022-12-29T12:34:44;100999.06;;;16.46;46.06
35716;BME280;21840;44.920;8.616;2022-12-29T12:37:15;100993.53;;;16.05;46.84
35716;BME280;21840;44.920;8.616;2022-12-29T12:45:38;100984.34;;;16.52;46.35
35716;BME280;21840;44.920;8.616;2022-12-29T12:58:53;100961.19;;;16.02;47.59
35716;BME280;21840;44.920;8.616;2022-12-29T13:01:42;100949.97;;;15.64;48.57
35716;BME280;21840;44.920;8.616;2022-12-29T13:06:58;100957.00;;;15.91;48.10
35716;BME280;21840;44.920;8.616;2022-12-29T13:15:01;100940.38;;;15.81;48.08
35716;BME280;21840;44.920;8.616;2022-12-29T13:17:36;100944.75;;;15.72;48.26
35716;BME280;21840;44.920;8.616;2022-12-29T13:22:58;100941.09;;;15.91;48.16
35716;BME280;21840;44.920;8.616;2022-12-29T13:28:25;100946.00;;;16.12;47.58
35716;BME280;21840;44.920;8.616;2022-12-29T13:38:50;100924.44;;;16.33;46.58
35716;BME280;21840;44.920;8.616;2022-12-29T13:41:39;100924.38;;;16.25;46.57
35716;BME280;21840;44.920;8.616;2022-12-29T13:44:07;100913.69;;;16.00;46.81
35716;BME280;21840;44.920;8.616;2022-12-29T13:46:40;100907.75;;;16.06;47.02
35716;BME280;21840;44.920;8.616;2022-12-29T13:49:15;100913.66;;;15.74;47.56
35716;BME280;21840;44.920;8.616;2022-12-29T13:51:48;100916.22;;;15.66;47.88
35716;BME280;21840;44.920;8.616;2022-12-29T14:00:13;100904.97;;;15.64;48.14
35716;BME280;21840;44.920;8.616;2022-12-29T14:07:49;100897.72;;;15.92;46.97
35716;BME280;21840;44.920;8.616;2022-12-29T14:10:36;100890.31;;;15.95;46.81
35716;BME280;21840;44.920;8.616;2022-12-29T14:13:12;100882.94;;;15.63;47.05
35716;BME280;21840;44.920;8.616;2022-12-29T14:15:39;100891.66;;;15.73;47.01
35716;BME280;21840;44.920;8.616;2022-12-29T14:18:20;100887.75;;;15.42;47.80
35716;BME280;21840;44.920;8.616;2022-12-29T14:21:08;100886.19;;;15.57;47.38
35716;BME280;21840;44.920;8.616;2022-12-29T14:28:35;100899.22;;;15.94;46.33
35716;BME280;21840;44.920;8.616;2022-12-29T14:31:03;100896.50;;;16.12;45.86
35716;BME280;21840;44.920;8.616;2022-12-29T14:33:31;100888.72;;;16.11;45.66
35716;BME280;21840;44.920;8.616;2022-12-29T14:36:20;100882.50;;;15.94;46.25
35716;BME280;21840;44.920;8.616;2022-12-29T14:38:47;100880.41;;;15.53;47.42
35716;BME280;21840;44.920;8.616;2022-12-29T14:41:24;100885.69;;;15.71;46.94
35716;BME280;21840;44.920;8.616;2022-12-29T14:43:59;100884.13;;;15.87;46.75
35716;BME280;21840;44.920;8.616;2022-12-29T14:46:27;100882.22;;;15.71;46.57
35716;BME280;21840;44.920;8.616;2022-12-29T14:49:15;100895.38;;;15.45;46.94
35716;BME280;21840;44.920;8.616;2022-12-29T14:51:42;100903.47;;;15.43;47.04
35716;BME280;21840;44.920;8.616;2022-12-29T14:57:01;100889.72;;;15.40;47.16
35716;BME280;21840;44.920;8.616;2022-12-29T14:59:29;100881.56;;;14.97;47.83